Portada
METAR-TAF:

METAR-TAF

Aeroports :

Wuhan, Xina

latitud: 30-37N, longitud: 114-08E, altitud: 23 m

Observació

L'informe es va fer fa 35 minuts, a les 03:00 UTC
Vent 10 kt del Est/Nord-Est, variant entre Nord-Est i Est
Temperatura 21°C
Humitat 53%
Pressió 1029 hPa
Visibilitat 10 km o més
sense núvols per sota de 1500 mi sense presència de cumulonimbus.

METAR: ZHHH 150300Z 07005MPS 040V100 CAVOK 21/11 Q1029 NOSIG

Hora: 11:35 (03:35 UTC)

Pronòstic

L'informe es va fer fa 8 hores i 28 minuts, a les 19:07 UTC
Pronòstic vàlid del 15 a les 00 UTC al 15 a les 24 UTC
Vent 6 kt del Nord/Nord-Est
Visibilitat: 6000 m

TAF: ZHHH 141907Z 1500/1524 03003MPS 6000 NSC TX20/1506Z TN14/1521Z

Observacions i pronòstics meteorològics de més de 4000 aeroports (METAR i TAF).

Les estacions disponibles són els punts grocs i vermells al mapa.

Posi el ratolí al punt desitjat per veure el nom de l'estació.

Feu clic per veure les observacions i els pronòstics meteorològics.

Per canviar el mapa: feu clic els botons verds amb una creu de color negre per apropar; al botó verd amb un guió per allunyar la imatge; o en les fletxes verdes per a mapes adjacents.


METAR-TAF: